Time;durP1;ratioP1;P1;durP2;ratioP2;P2;SDS_P1;SDS_P2;PMS_P1;PMS_P2;Temp;Humidity;BMP_temperature;BMP_pressure;BME280_temperature;BME280_humidity;BME280_pressure;Samples;Min_cycle;Max_cycle;Signal;HPM_P1;HPM_P2
2021/09/12 00:01:16;;;;;;;16.30;13.48;;;;;;;14.25;73.52;99846.70;254270;1106;117567;-67
2021/09/12 00:06:20;;;;;;;25.08;13.40;;;;;;;14.26;72.91;99853.67;253807;1107;115799;-66
2021/09/12 00:11:24;;;;;;;15.23;13.23;;;;;;;14.14;73.04;99853.02;253812;1107;116658;-66
2021/09/12 00:16:27;;;;;;;16.05;14.18;;;;;;;14.06;73.41;99853.52;254018;1107;116098;-68
2021/09/12 00:21:30;;;;;;;17.23;13.63;;;;;;;14.01;73.57;99850.78;253972;1105;116051;-66
2021/09/12 00:26:32;;;;;;;16.38;13.50;;;;;;;14.03;73.44;99854.02;253829;1102;116859;-66
2021/09/12 00:31:35;;;;;;;14.60;12.63;;;;;;;14.07;73.66;99845.19;254555;1107;115323;-66
2021/09/12 00:36:39;;;;;;;15.93;14.13;;;;;;;14.08;73.63;99851.36;254079;1106;116291;-66
2021/09/12 00:41:44;;;;;;;25.30;16.58;;;;;;;14.07;74.08;99860.45;253759;1107;116108;-65
2021/09/12 00:46:49;;;;;;;19.33;15.80;;;;;;;14.08;73.90;99859.40;254015;1107;116760;-65
2021/09/12 00:51:52;;;;;;;21.33;15.08;;;;;;;14.12;74.21;99852.47;254757;1107;116116;-66
2021/09/12 00:56:56;;;;;;;17.43;14.63;;;;;;;14.14;73.87;99855.70;254554;1107;118924;-66
2021/09/12 01:01:59;;;;;;;15.85;13.45;;;;;;;14.01;73.72;99850.78;253759;1098;115926;-67
2021/09/12 01:07:04;;;;;;;19.13;15.17;;;;;;;13.94;73.81;99850.17;255318;1107;136756;-66
2021/09/12 01:12:10;;;;;;;17.35;15.55;;;;;;;13.93;74.12;99857.41;256043;1107;115841;-66
2021/09/12 01:17:14;;;;;;;16.50;14.45;;;;;;;13.90;74.34;99855.23;255487;1103;118679;-66
2021/09/12 01:22:16;;;;;;;15.47;12.97;;;;;;;13.86;74.05;99853.30;253960;1107;115767;-65
2021/09/12 01:27:19;;;;;;;16.88;15.15;;;;;;;13.76;74.51;99849.45;254933;1107;115850;-65
2021/09/12 01:32:24;;;;;;;19.08;16.35;;;;;;;13.72;74.23;99850.23;255393;1107;115851;-65
2021/09/12 01:37:27;;;;;;;20.80;16.40;;;;;;;13.63;74.23;99844.52;254913;1106;115847;-66
2021/09/12 01:42:30;;;;;;;26.53;18.45;;;;;;;13.57;74.68;99839.34;254290;1100;115768;-65
2021/09/12 01:47:34;;;;;;;18.33;16.45;;;;;;;13.66;74.99;99843.20;255721;1107;115909;-66
2021/09/12 01:52:36;;;;;;;20.00;17.63;;;;;;;13.70;74.72;99834.41;254367;1107;115975;-67
2021/09/12 01:57:39;;;;;;;19.35;17.25;;;;;;;13.73;75.17;99833.91;254638;1107;115593;-66
2021/09/12 02:02:43;;;;;;;18.60;15.30;;;;;;;13.71;75.31;99832.54;253857;1100;116411;-66
2021/09/12 02:07:47;;;;;;;19.67;16.20;;;;;;;13.63;75.40;99827.63;253671;1107;116626;-68
2021/09/12 02:12:50;;;;;;;20.25;16.23;;;;;;;13.60;76.06;99834.30;253893;1107;116275;-65
2021/09/12 02:17:54;;;;;;;21.13;15.80;;;;;;;13.74;75.88;99834.72;253950;1100;117878;-66
2021/09/12 02:22:57;;;;;;;24.50;16.95;;;;;;;13.81;76.42;99835.30;254077;1107;116502;-66
2021/09/12 02:28:02;;;;;;;23.10;17.53;;;;;;;13.93;76.34;99833.28;253921;1100;116691;-66
2021/09/12 02:33:05;;;;;;;24.75;15.05;;;;;;;14.03;76.52;99838.75;254558;1106;116447;-65
2021/09/12 02:38:09;;;;;;;19.40;16.73;;;;;;;14.08;76.17;99843.31;254479;1107;116359;-65
2021/09/12 02:43:13;;;;;;;18.63;16.13;;;;;;;14.14;76.58;99835.06;253859;1100;118830;-67
2021/09/12 02:48:16;;;;;;;21.63;16.93;;;;;;;14.18;76.87;99835.38;254965;1106;116170;-65
2021/09/12 02:53:20;;;;;;;21.08;17.40;;;;;;;14.30;77.34;99836.02;253959;1107;119289;-66
2021/09/12 02:58:23;;;;;;;19.87;17.87;;;;;;;14.40;76.77;99836.07;254541;1107;116045;-69
2021/09/12 03:03:27;;;;;;;21.77;18.83;;;;;;;14.42;76.70;99830.48;254093;1107;116502;-65
2021/09/12 03:08:32;;;;;;;18.43;15.77;;;;;;;14.41;76.54;99848.45;254334;1107;116387;-66
2021/09/12 03:13:34;;;;;;;22.78;20.35;;;;;;;14.43;77.08;99838.27;254668;1107;116869;-68
2021/09/12 03:18:38;;;;;;;23.63;19.38;;;;;;;14.49;77.16;99836.44;256405;1106;117328;-65
2021/09/12 03:23:41;;;;;;;25.03;17.80;;;;;;;14.59;76.95;99831.16;256318;1107;117049;-65
2021/09/12 03:28:44;;;;;;;25.43;19.33;;;;;;;14.65;77.27;99834.68;254322;1107;115980;-65
2021/09/12 03:33:47;;;;;;;19.77;17.07;;;;;;;14.76;77.46;99839.83;256103;1107;116289;-66
2021/09/12 03:38:50;;;;;;;26.87;19.97;;;;;;;14.91;77.25;99841.81;256136;1107;117594;-64
2021/09/12 03:43:55;;;;;;;20.80;18.43;;;;;;;14.97;76.92;99838.09;255028;1107;116932;-65
2021/09/12 03:48:58;;;;;;;25.40;20.85;;;;;;;15.01;77.59;99844.53;254610;1107;116474;-64
2021/09/12 03:54:01;;;;;;;24.30;20.37;;;;;;;15.03;76.89;99834.34;254008;1107;115825;-64
2021/09/12 03:59:04;;;;;;;25.88;21.68;;;;;;;15.02;76.96;99832.72;255272;1107;116284;-64
2021/09/12 04:04:07;;;;;;;24.08;19.68;;;;;;;15.04;77.04;99833.27;253996;1107;117090;-65
2021/09/12 04:09:10;;;;;;;29.03;21.53;;;;;;;15.03;76.53;99833.53;254367;1107;116325;-64
2021/09/12 04:14:14;;;;;;;24.73;21.53;;;;;;;15.00;76.94;99834.86;254660;1107;115493;-64
2021/09/12 04:19:18;;;;;;;27.78;21.15;;;;;;;14.82;76.09;99841.48;254038;1107;116530;-66
2021/09/12 04:24:21;;;;;;;30.58;22.18;;;;;;;14.75;76.67;99832.84;254758;1107;117337;-65
2021/09/12 04:29:24;;;;;;;24.35;18.03;;;;;;;14.71;76.30;99844.36;254151;1100;116548;-64
2021/09/12 04:34:31;;;;;;;31.30;21.43;;;;;;;14.75;76.83;99840.90;254468;1107;115809;-67
2021/09/12 04:39:36;;;;;;;24.20;21.08;;;;;;;14.87;77.06;99854.13;254275;1107;115966;-64
2021/09/12 04:44:39;;;;;;;25.20;21.68;;;;;;;14.96;77.43;99843.72;254112;1106;116635;-64
2021/09/12 04:49:42;;;;;;;30.00;22.65;;;;;;;15.08;77.28;99846.98;253958;1107;117094;-65
2021/09/12 04:54:46;;;;;;;32.45;23.23;;;;;;;15.26;77.90;99851.11;254790;1107;117399;-64
2021/09/12 04:59:49;;;;;;;34.13;25.30;;;;;;;15.41;77.94;99846.58;254587;1107;215570;-65
2021/09/12 05:04:53;;;;;;;35.65;26.25;;;;;;;15.72;78.28;99839.44;254459;1107;116171;-65
2021/09/12 05:09:57;;;;;;;29.48;22.40;;;;;;;16.06;78.48;99837.07;255594;1107;115962;-65
2021/09/12 05:15:01;;;;;;;39.85;25.90;;;;;;;16.26;78.10;99844.33;256078;1107;116154;-63
2021/09/12 05:20:05;;;;;;;28.35;24.10;;;;;;;16.43;78.37;99850.25;255338;1106;115456;-64
2021/09/12 05:25:09;;;;;;;26.15;23.35;;;;;;;16.58;78.40;99848.61;256225;1107;116326;-65
2021/09/12 05:30:12;;;;;;;28.33;23.38;;;;;;;16.67;77.91;99850.52;256070;1107;115793;-65
2021/09/12 05:35:15;;;;;;;29.40;24.45;;;;;;;16.86;78.19;99853.43;256147;1107;115689;-65
2021/09/12 05:40:17;;;;;;;26.18;22.63;;;;;;;17.01;78.16;99858.79;255763;1107;115358;-64
2021/09/12 05:45:21;;;;;;;32.65;24.45;;;;;;;17.15;78.40;99856.30;255436;1107;116895;-66
2021/09/12 05:50:24;;;;;;;27.83;23.58;;;;;;;17.16;78.25;99860.61;254215;1107;117756;-63
2021/09/12 05:55:27;;;;;;;28.53;25.33;;;;;;;17.18;78.62;99861.14;254232;1107;117683;-62
2021/09/12 06:00:30;;;;;;;28.38;25.25;;;;;;;17.26;78.23;99857.09;255361;1107;116473;-63
2021/09/12 06:05:33;;;;;;;30.03;22.53;;;;;;;17.47;78.40;99863.98;254096;1107;117501;-64
2021/09/12 06:10:36;;;;;;;30.78;24.78;;;;;;;17.69;77.95;99871.75;253890;1107;117181;-64
2021/09/12 06:15:39;;;;;;;26.40;22.70;;;;;;;17.83;77.69;99861.94;253864;1107;117474;-64
2021/09/12 06:20:43;;;;;;;28.87;24.87;;;;;;;17.95;77.93;99869.70;253896;1107;116355;-63
2021/09/12 06:25:47;;;;;;;29.45;25.50;;;;;;;18.09;77.76;99866.07;254776;1106;116704;-64
2021/09/12 06:30:49;;;;;;;29.38;26.30;;;;;;;18.28;77.74;99874.31;253836;1100;116407;-64
2021/09/12 06:35:53;;;;;;;28.03;24.63;;;;;;;18.39;77.51;99875.83;254201;1106;118615;-65
2021/09/12 06:40:57;;;;;;;32.23;24.40;;;;;;;18.50;77.16;99871.16;254603;1107;116296;-64
2021/09/12 06:46:04;;;;;;;27.43;24.53;;;;;;;18.62;77.15;99874.33;254193;1107;116251;-65
2021/09/12 06:51:09;;;;;;;29.43;25.48;;;;;;;18.99;77.08;99873.66;254257;1107;117716;-64
2021/09/12 06:56:12;;;;;;;30.85;25.93;;;;;;;19.28;76.59;99870.89;253940;1107;116613;-65
2021/09/12 07:01:16;;;;;;;27.40;24.38;;;;;;;19.47;77.02;99874.46;254314;1107;116581;-65
2021/09/12 07:06:20;;;;;;;28.23;24.83;;;;;;;19.50;76.65;99871.21;255063;1107;115690;-65
2021/09/12 07:11:24;;;;;;;24.13;21.23;;;;;;;19.56;76.17;99871.95;254332;1107;115608;-65
2021/09/12 07:16:26;;;;;;;28.80;24.25;;;;;;;19.96;76.90;99880.58;255699;1107;115483;-65
2021/09/12 07:21:30;;;;;;;28.45;25.53;;;;;;;20.15;76.44;99882.19;253719;1107;115809;-66
2021/09/12 07:26:32;;;;;;;28.93;24.33;;;;;;;20.37;75.77;99869.94;253618;1100;115874;-67
2021/09/12 07:31:36;;;;;;;28.90;24.07;;;;;;;20.56;75.68;99878.03;254359;1107;116110;-66
2021/09/12 07:36:39;;;;;;;26.75;23.95;;;;;;;20.71;75.41;99884.00;256125;1106;116772;-67
2021/09/12 07:41:43;;;;;;;27.88;23.58;;;;;;;21.02;75.31;99878.02;256153;1107;115315;-67
2021/09/12 07:46:47;;;;;;;28.10;23.95;;;;;;;21.10;74.32;99897.08;256272;1107;216617;-67
2021/09/12 07:51:50;;;;;;;29.30;23.33;;;;;;;21.27;74.13;99893.01;254754;1106;116276;-67
2021/09/12 07:56:54;;;;;;;25.53;22.63;;;;;;;21.49;74.10;99904.74;255466;1107;115378;-66
2021/09/12 08:01:57;;;;;;;19.63;17.68;;;;;;;21.48;74.02;99888.77;253805;1107;115331;-66
2021/09/12 08:07:01;;;;;;;19.47;17.10;;;;;;;21.67;74.30;99896.80;253667;1107;118242;-68
2021/09/12 08:12:05;;;;;;;20.43;18.23;;;;;;;22.01;74.28;99912.64;253876;1107;117565;-67
2021/09/12 08:17:09;;;;;;;16.67;14.97;;;;;;;22.29;73.73;99903.28;254754;1107;117800;-67
2021/09/12 08:22:13;;;;;;;24.75;17.43;;;;;;;22.43;73.08;99898.58;253552;1107;116900;-67
2021/09/12 08:27:17;;;;;;;21.38;19.30;;;;;;;22.51;72.40;99895.13;253775;1107;116665;-66
2021/09/12 08:32:21;;;;;;;19.97;15.77;;;;;;;22.75;72.54;99899.41;253989;1107;116846;-66
2021/09/12 08:37:24;;;;;;;15.23;13.73;;;;;;;22.97;72.23;99902.11;253437;1107;115576;-67
2021/09/12 08:42:28;;;;;;;18.50;14.28;;;;;;;23.16;71.38;99893.73;254562;1106;116383;-66
2021/09/12 08:47:33;;;;;;;16.53;14.93;;;;;;;23.28;71.69;99890.39;253761;1107;115929;-65
2021/09/12 08:52:37;;;;;;;15.58;14.13;;;;;;;23.49;71.34;99886.00;254390;1107;116348;-65
2021/09/12 08:57:49;;;;;;;12.45;10.80;;;;;;;23.60;70.45;99884.59;254057;1107;115629;-65
2021/09/12 09:03:02;;;;;;;13.70;12.43;;;;;;;24.02;70.67;99882.23;253911;1107;116417;-65
2021/09/12 09:08:14;;;;;;;14.03;12.75;;;;;;;24.05;70.15;99882.40;254500;1107;116137;-67
2021/09/12 09:13:30;;;;;;;12.03;10.68;;;;;;;24.04;69.41;99891.69;253609;1100;118853;-67
2021/09/12 09:18:35;;;;;;;13.13;11.77;;;;;;;23.96;69.04;99888.95;254488;1106;116087;-67
2021/09/12 09:23:44;;;;;;;13.80;12.55;;;;;;;24.06;68.50;99891.37;253657;1107;116359;-68
2021/09/12 09:28:54;;;;;;;11.33;10.23;;;;;;;24.10;68.43;99889.61;255115;1106;117567;-67
2021/09/12 09:34:19;;;;;;;12.07;11.00;;;;;;;24.32;68.54;99894.11;255326;1107;115862;-67
2021/09/12 09:39:41;;;;;;;12.13;10.98;;;;;;;24.65;68.19;99888.92;256346;1107;115729;-67
2021/09/12 09:44:58;;;;;;;10.43;9.27;;;;;;;24.84;66.93;99894.80;256401;1107;116288;-67
2021/09/12 09:50:12;;;;;;;10.90;9.90;;;;;;;24.82;67.06;99894.31;254973;1107;115986;-68
2021/09/12 09:55:18;;;;;;;11.33;10.40;;;;;;;24.94;66.28;99890.92;253818;1107;116605;-68
2021/09/12 10:00:23;;;;;;;9.65;8.83;;;;;;;24.98;65.81;99895.44;256339;1107;116966;-68
2021/09/12 10:05:29;;;;;;;10.15;9.15;;;;;;;24.82;65.52;99897.05;253885;1100;116916;-69
2021/09/12 10:10:32;;;;;;;9.27;8.37;;;;;;;24.82;64.84;99894.31;253940;1106;116378;-67
2021/09/12 10:15:39;;;;;;;8.03;7.40;;;;;;;24.68;64.04;99888.28;253755;1100;115791;-69
2021/09/12 10:20:46;;;;;;;10.13;9.28;;;;;;;24.61;64.26;99888.77;253665;1101;115974;-68
2021/09/12 10:25:57;;;;;;;7.83;7.13;;;;;;;24.76;64.62;99890.19;253522;1106;117189;-67
2021/09/12 10:31:01;;;;;;;8.77;8.03;;;;;;;24.99;63.55;99880.67;253832;1107;116389;-68
2021/09/12 10:36:04;;;;;;;10.60;9.75;;;;;;;25.01;63.42;99880.34;253756;1107;117049;-71
2021/09/12 10:41:13;;;;;;;10.00;9.20;;;;;;;25.09;63.52;99863.92;253792;1107;116093;-68
2021/09/12 10:46:18;;;;;;;9.75;9.00;;;;;;;25.45;63.43;99854.42;253745;1107;115972;-69
2021/09/12 10:51:22;;;;;;;10.33;9.53;;;;;;;25.32;62.38;99864.47;253763;1107;115468;-69
2021/09/12 10:56:26;;;;;;;9.68;8.70;;;;;;;25.25;62.16;99857.92;253549;1107;116060;-69
2021/09/12 11:01:34;;;;;;;10.13;9.20;;;;;;;25.11;62.90;99858.94;254040;1107;116094;-69
2021/09/12 11:06:43;;;;;;;7.38;6.78;;;;;;;25.00;62.34;99857.73;253910;1107;117824;-69
2021/09/12 11:11:46;;;;;;;4.30;3.90;;;;;;;25.34;61.95;99858.68;253791;1100;116772;-69
2021/09/12 11:16:49;;;;;;;7.45;6.75;;;;;;;25.83;61.75;99846.95;253696;1101;116055;-69
2021/09/12 11:21:52;;;;;;;7.50;6.63;;;;;;;26.18;60.33;99844.73;254852;1107;115308;-69
2021/09/12 11:27:01;;;;;;;8.30;7.63;;;;;;;26.31;60.50;99851.05;254776;1107;115129;-68
2021/09/12 11:32:08;;;;;;;8.13;7.40;;;;;;;25.96;59.53;99855.23;255052;1100;116025;-69
2021/09/12 11:37:19;;;;;;;7.70;7.10;;;;;;;25.63;59.72;99842.30;254754;1106;115977;-68
2021/09/12 11:42:23;;;;;;;8.65;7.75;;;;;;;25.77;59.62;99844.76;253973;1102;115721;-68
2021/09/12 11:47:28;;;;;;;9.03;7.98;;;;;;;25.61;58.99;99836.34;254125;1107;117558;-67
2021/09/12 11:52:34;;;;;;;9.63;8.15;;;;;;;25.50;59.11;99830.47;256399;1107;115520;-67
2021/09/12 11:57:37;;;;;;;8.13;7.50;;;;;;;25.53;59.71;99820.82;254441;1107;116273;-68
2021/09/12 12:02:43;;;;;;;9.78;8.85;;;;;;;25.47;59.21;99816.69;254673;1107;115477;-68
2021/09/12 12:07:47;;;;;;;11.40;7.95;;;;;;;25.33;59.59;99827.87;254533;1107;115263;-68
2021/09/12 12:12:51;;;;;;;8.63;7.73;;;;;;;25.01;60.02;99817.62;253711;1100;115716;-67
2021/09/12 12:17:55;;;;;;;9.50;8.80;;;;;;;24.76;59.92;99814.66;253657;1107;139566;-66
2021/09/12 12:23:24;;;;;;;9.38;8.03;;;;;;;24.62;60.29;99807.80;253925;1107;115845;-66
2021/09/12 12:28:27;;;;;;;10.43;9.43;;;;;;;24.47;60.10;99795.50;253737;1107;115662;-67
2021/09/12 12:33:31;;;;;;;8.60;7.90;;;;;;;24.65;60.83;99788.08;253620;1100;117225;-67
2021/09/12 12:38:37;;;;;;;8.80;8.10;;;;;;;24.61;60.52;99795.30;253896;1107;138838;-68
2021/09/12 12:43:41;;;;;;;8.80;8.10;;;;;;;24.67;60.33;99794.80;254038;1107;115746;-68
2021/09/12 12:48:44;;;;;;;9.23;8.43;;;;;;;24.82;60.53;99790.72;253726;1107;115272;-68
2021/09/12 12:53:55;;;;;;;10.03;8.80;;;;;;;24.61;60.12;99801.55;253746;1106;117831;-67
2021/09/12 12:59:09;;;;;;;9.37;8.57;;;;;;;24.45;60.39;99792.33;254785;1107;115617;-68
2021/09/12 13:04:13;;;;;;;9.73;8.90;;;;;;;24.60;61.18;99793.70;254045;1107;115655;-67
2021/09/12 13:09:16;;;;;;;8.40;7.75;;;;;;;24.93;60.83;99783.77;253751;1107;115559;-67
2021/09/12 13:14:19;;;;;;;7.78;7.18;;;;;;;25.31;60.15;99783.73;253761;1107;115699;-67
2021/09/12 13:19:22;;;;;;;8.10;7.30;;;;;;;25.61;58.83;99786.41;253755;1106;116131;-67
2021/09/12 13:24:25;;;;;;;7.78;6.83;;;;;;;25.74;58.83;99785.35;253836;1107;116470;-68
2021/09/12 13:29:29;;;;;;;9.70;8.83;;;;;;;25.64;58.69;99777.59;255184;1106;115537;-68
2021/09/12 13:34:31;;;;;;;8.80;8.10;;;;;;;25.50;58.37;99778.61;253602;1100;115261;-68
2021/09/12 13:39:35;;;;;;;9.10;8.30;;;;;;;25.40;58.98;99779.00;254129;1107;116261;-67
2021/09/12 13:44:38;;;;;;;9.17;7.90;;;;;;;25.41;58.17;99774.34;253576;1101;207890;-67
2021/09/12 13:49:41;;;;;;;7.78;7.18;;;;;;;25.44;58.32;99776.41;256035;1107;117328;-67
2021/09/12 13:54:44;;;;;;;7.80;7.10;;;;;;;25.46;57.34;99771.42;256079;1106;114787;-67
2021/09/12 13:59:47;;;;;;;9.23;8.33;;;;;;;25.38;57.18;99775.00;256139;1107;116035;-68
2021/09/12 14:04:50;;;;;;;11.20;10.20;;;;;;;25.39;57.31;99765.69;255001;1106;116131;-67
2021/09/12 14:09:55;;;;;;;7.48;6.13;;;;;;;25.32;56.31;99768.97;254794;1107;115918;-67
2021/09/12 14:14:57;;;;;;;7.48;6.80;;;;;;;25.16;56.30;99774.19;254654;1106;116779;-68
2021/09/12 14:20:01;;;;;;;8.03;7.33;;;;;;;25.14;56.29;99765.54;253920;1100;115356;-67
2021/09/12 14:25:05;;;;;;;6.93;5.20;;;;;;;25.08;55.70;99766.86;253868;1106;115255;-68
2021/09/12 14:30:10;;;;;;;8.33;5.60;;;;;;;24.98;55.62;99767.26;253623;1106;115794;-68
2021/09/12 14:35:31;;;;;;;7.50;6.85;;;;;;;24.75;55.44;99771.37;254782;1100;115673;-66
2021/09/12 14:40:34;;;;;;;6.87;6.27;;;;;;;24.54;55.46;99765.82;253793;1107;116074;-66
2021/09/12 14:45:37;;;;;;;7.37;6.77;;;;;;;24.39;55.85;99767.17;254341;1100;115858;-65
2021/09/12 14:50:43;;;;;;;5.83;5.27;;;;;;;24.25;56.21;99766.56;254144;1107;115343;-67
2021/09/12 14:55:46;;;;;;;9.58;7.23;;;;;;;24.01;56.61;99768.99;253688;1100;116635;-67
2021/09/12 15:00:50;;;;;;;7.80;7.05;;;;;;;23.80;56.60;99761.50;253880;1107;116801;-67
2021/09/12 15:05:54;;;;;;;8.68;7.20;;;;;;;23.72;56.80;99756.86;253801;1106;117112;-67
2021/09/12 15:10:57;;;;;;;10.08;7.48;;;;;;;23.73;57.35;99757.66;253726;1107;116617;-67
2021/09/12 15:16:03;;;;;;;7.27;6.67;;;;;;;23.63;57.79;99750.61;253911;1107;116272;-67
2021/09/12 15:21:07;;;;;;;7.87;7.07;;;;;;;23.53;57.50;99750.95;254174;1106;116258;-67
2021/09/12 15:26:12;;;;;;;9.10;6.30;;;;;;;23.46;57.34;99751.39;254303;1107;116638;-67
2021/09/12 15:31:15;;;;;;;9.07;7.17;;;;;;;23.38;57.46;99749.46;253729;1106;116280;-67
2021/09/12 15:36:18;;;;;;;6.00;5.53;;;;;;;23.28;57.99;99748.96;254039;1107;116093;-66
2021/09/12 15:41:22;;;;;;;6.13;5.60;;;;;;;23.15;57.83;99746.09;255052;1107;117472;-66
2021/09/12 15:46:26;;;;;;;7.10;6.53;;;;;;;23.05;57.98;99743.66;253812;1107;116253;-65
2021/09/12 15:51:32;;;;;;;7.33;6.63;;;;;;;22.96;58.34;99753.70;253781;1107;118153;-66
2021/09/12 15:56:39;;;;;;;7.80;7.15;;;;;;;22.81;58.23;99751.44;254653;1107;116767;-66
2021/09/12 16:01:46;;;;;;;7.00;6.40;;;;;;;22.66;58.88;99746.39;255053;1107;116831;-66
2021/09/12 16:06:50;;;;;;;7.00;6.25;;;;;;;22.53;59.38;99741.89;253866;1107;117963;-66
2021/09/12 16:11:53;;;;;;;7.20;6.60;;;;;;;22.40;59.71;99747.09;253663;1107;116848;-66
2021/09/12 16:16:55;;;;;;;7.83;7.23;;;;;;;22.30;59.90;99747.39;253778;1107;116146;-66
2021/09/12 16:21:58;;;;;;;7.38;6.78;;;;;;;22.24;60.48;99731.53;254955;1107;117027;-66
2021/09/12 16:27:01;;;;;;;7.83;7.10;;;;;;;22.17;60.97;99748.27;254642;1107;115462;-66
2021/09/12 16:32:05;;;;;;;8.08;7.15;;;;;;;22.08;61.49;99745.48;253897;1107;115878;-66
2021/09/12 16:37:23;;;;;;;8.50;7.80;;;;;;;21.96;61.99;99747.16;253730;1107;115712;-66
2021/09/12 16:42:25;;;;;;;7.75;7.05;;;;;;;21.81;62.32;99740.98;253818;1107;115074;-66
2021/09/12 16:47:28;;;;;;;8.87;6.90;;;;;;;21.70;62.64;99733.41;254109;1107;115285;-66
2021/09/12 16:52:32;;;;;;;7.78;7.08;;;;;;;21.55;63.09;99720.20;253884;1101;115743;-66
2021/09/12 16:57:34;;;;;;;8.33;6.93;;;;;;;21.38;63.45;99729.81;253611;1107;116428;-66
2021/09/12 17:02:37;;;;;;;7.70;6.93;;;;;;;21.21;63.27;99734.27;253611;1106;115526;-66
2021/09/12 17:07:42;;;;;;;8.30;7.40;;;;;;;21.04;63.85;99735.69;253851;1107;115209;-66
2021/09/12 17:12:46;;;;;;;7.78;7.13;;;;;;;20.85;63.99;99734.98;253781;1106;115463;-69
2021/09/12 17:17:51;;;;;;;8.70;7.63;;;;;;;20.65;64.59;99730.80;253665;1107;116114;-66
2021/09/12 17:22:56;;;;;;;7.80;7.10;;;;;;;20.51;64.82;99735.39;253941;1103;116193;-65
2021/09/12 17:27:59;;;;;;;7.80;7.20;;;;;;;20.36;65.26;99738.38;254383;1107;114821;-66
2021/09/12 17:33:03;;;;;;;8.33;7.63;;;;;;;20.25;65.49;99740.45;253838;1106;114705;-67
2021/09/12 17:38:06;;;;;;;8.58;7.78;;;;;;;20.13;66.14;99743.66;256256;1106;115646;-67
2021/09/12 17:43:10;;;;;;;9.93;7.90;;;;;;;20.02;66.27;99741.41;254026;1105;115378;-69
2021/09/12 17:48:15;;;;;;;7.28;6.65;;;;;;;19.90;66.41;99736.45;253746;1107;115874;-67
2021/09/12 17:53:19;;;;;;;10.33;7.27;;;;;;;19.79;66.79;99735.04;254406;1107;118284;-67
2021/09/12 17:58:23;;;;;;;8.80;8.10;;;;;;;19.74;66.85;99744.03;253652;1107;115876;-67
2021/09/12 18:03:39;;;;;;;7.73;7.13;;;;;;;19.69;67.69;99741.41;256161;1107;115618;-67
2021/09/12 18:08:43;;;;;;;9.43;8.70;;;;;;;19.68;67.51;99742.50;256155;1107;115138;-68
2021/09/12 18:13:46;;;;;;;8.05;7.45;;;;;;;19.65;67.79;99745.79;254455;1107;117092;-68
2021/09/12 18:18:50;;;;;;;11.03;9.93;;;;;;;19.60;68.09;99753.17;254011;1107;115482;-67
2021/09/12 18:23:54;;;;;;;14.43;8.80;;;;;;;19.48;68.40;99746.30;253696;1106;115864;-67
2021/09/12 18:28:58;;;;;;;10.37;9.47;;;;;;;19.42;68.44;99749.36;253824;1106;116181;-67
2021/09/12 18:34:03;;;;;;;13.08;7.55;;;;;;;19.34;68.55;99764.33;254176;1106;115731;-66
2021/09/12 18:39:07;;;;;;;8.43;7.65;;;;;;;19.22;68.75;99761.27;253709;1100;116145;-66
2021/09/12 18:44:14;;;;;;;12.43;8.85;;;;;;;19.12;69.02;99767.61;253582;1107;115927;-67
2021/09/12 18:49:18;;;;;;;10.08;8.35;;;;;;;19.04;69.16;99770.95;253872;1107;115972;-70
2021/09/12 18:54:21;;;;;;;9.33;8.43;;;;;;;18.94;69.17;99778.39;254356;1107;115433;-66
2021/09/12 18:59:25;;;;;;;12.38;8.48;;;;;;;18.88;69.27;99779.54;253746;1107;116930;-66
2021/09/12 19:04:29;;;;;;;12.30;9.70;;;;;;;18.77;69.73;99774.24;254617;1107;174156;-66
2021/09/12 19:09:35;;;;;;;12.73;9.37;;;;;;;18.70;69.97;99781.88;253791;1107;115162;-66
2021/09/12 19:14:41;;;;;;;10.15;9.28;;;;;;;18.61;69.71;99789.02;253736;1107;116214;-66
2021/09/12 19:19:47;;;;;;;14.60;9.10;;;;;;;18.53;70.32;99778.00;253694;1107;115479;-67
2021/09/12 19:24:51;;;;;;;11.90;9.30;;;;;;;18.41;70.15;99789.17;253577;1106;115941;-67
2021/09/12 19:29:55;;;;;;;8.53;7.80;;;;;;;18.26;70.46;99792.84;254434;1107;115099;-66
2021/09/12 19:34:59;;;;;;;8.83;7.90;;;;;;;18.12;70.28;99799.96;255061;1107;114774;-66
2021/09/12 19:40:03;;;;;;;7.50;6.80;;;;;;;17.96;70.89;99806.58;253932;1106;117859;-66
2021/09/12 19:45:07;;;;;;;7.08;6.00;;;;;;;17.89;70.85;99801.50;255602;1107;115300;-67
2021/09/12 19:50:10;;;;;;;11.05;7.35;;;;;;;17.86;71.46;99812.84;255563;1107;115531;-67
2021/09/12 19:55:12;;;;;;;9.18;8.33;;;;;;;17.78;71.55;99810.73;254672;1107;115730;-66
2021/09/12 20:00:16;;;;;;;9.07;8.23;;;;;;;17.76;71.86;99812.91;255953;1106;115331;-66
2021/09/12 20:05:18;;;;;;;10.50;8.58;;;;;;;17.78;71.96;99811.54;256333;1106;203295;-66
2021/09/12 20:10:21;;;;;;;8.10;7.28;;;;;;;17.81;71.95;99813.68;256151;1106;115387;-66
2021/09/12 20:15:24;;;;;;;7.60;6.90;;;;;;;17.86;71.94;99812.84;255536;1107;117224;-66
2021/09/12 20:20:27;;;;;;;10.55;8.30;;;;;;;17.81;71.95;99808.28;254466;1100;115866;-68
2021/09/12 20:25:33;;;;;;;8.73;7.93;;;;;;;17.75;71.86;99809.41;254179;1107;115772;-69
2021/09/12 20:30:36;;;;;;;8.10;7.00;;;;;;;17.66;71.78;99811.10;254200;1107;116945;-66
2021/09/12 20:35:39;;;;;;;11.00;7.55;;;;;;;17.58;71.96;99811.66;253675;1107;116198;-66
2021/09/12 20:40:46;;;;;;;8.05;6.18;;;;;;;17.51;72.02;99811.14;254260;1106;116101;-66
2021/09/12 20:45:51;;;;;;;7.00;6.37;;;;;;;17.46;72.16;99805.78;253893;1107;116567;-65
2021/09/12 20:50:55;;;;;;;13.43;9.20;;;;;;;17.34;71.63;99816.91;253953;1107;116888;-66
2021/09/12 20:55:59;;;;;;;10.63;9.73;;;;;;;17.25;72.10;99815.06;253817;1107;117476;-69
2021/09/12 21:01:02;;;;;;;11.13;9.38;;;;;;;17.17;72.31;99819.13;253929;1107;117429;-66
2021/09/12 21:06:07;;;;;;;10.55;8.15;;;;;;;17.10;72.48;99822.14;253920;1107;115706;-66
2021/09/12 21:11:12;;;;;;;;;;;;;;;17.00;72.61;99824.86;253860;1107;115038;-66
2021/09/12 21:16:15;;;;;;;9.60;8.75;;;;;;;16.86;72.45;99831.89;254390;1107;103113;-66
2021/09/12 21:21:19;;;;;;;11.13;9.28;;;;;;;16.74;72.51;99826.02;253980;1107;114747;-66
2021/09/12 21:26:24;;;;;;;8.98;8.18;;;;;;;16.66;72.56;99827.38;254282;1106;115856;-66
2021/09/12 21:31:27;;;;;;;8.87;8.00;;;;;;;16.60;72.26;99827.62;253973;1100;114782;-66
2021/09/12 21:36:31;;;;;;;9.25;8.45;;;;;;;16.41;72.14;99824.70;253579;1107;115769;-67
2021/09/12 21:41:34;;;;;;;9.03;8.10;;;;;;;16.25;72.56;99828.45;254752;1106;114831;-66
2021/09/12 21:46:38;;;;;;;10.10;8.13;;;;;;;16.21;72.79;99832.75;255857;1107;115735;-66
2021/09/12 21:51:42;;;;;;;8.48;7.68;;;;;;;16.17;72.49;99824.45;254203;1107;115769;-66
2021/09/12 21:56:47;;;;;;;7.80;7.00;;;;;;;16.11;72.67;99828.20;256228;1107;115532;-66
2021/09/12 22:01:50;;;;;;;8.53;7.25;;;;;;;15.87;72.56;99829.80;256287;1107;136732;-66
2021/09/12 22:06:54;;;;;;;7.18;6.28;;;;;;;15.71;72.72;99829.77;256072;1107;114977;-65
2021/09/12 22:11:58;;;;;;;9.90;8.95;;;;;;;15.59;73.10;99831.91;256248;1107;115661;-66
2021/09/12 22:17:01;;;;;;;9.70;7.88;;;;;;;15.56;72.96;99835.13;256045;1107;115793;-66
2021/09/12 22:22:04;;;;;;;8.43;7.63;;;;;;;15.42;73.09;99833.96;254565;1107;114678;-66
2021/09/12 22:27:08;;;;;;;9.78;8.78;;;;;;;15.28;73.29;99827.48;254490;1107;118128;-66
2021/09/12 22:32:16;;;;;;;8.40;7.60;;;;;;;15.21;73.75;99826.91;254943;1107;117405;-69
2021/09/12 22:37:20;;;;;;;9.60;8.20;;;;;;;15.26;73.52;99824.25;254049;1107;115638;-66
2021/09/12 22:42:24;;;;;;;10.63;9.25;;;;;;;15.24;74.09;99815.64;253646;1107;115978;-66
2021/09/12 22:47:28;;;;;;;11.87;8.90;;;;;;;15.26;73.92;99814.31;254266;1100;115381;-65
2021/09/12 22:52:33;;;;;;;8.60;7.80;;;;;;;15.20;73.89;99820.73;253992;1107;115677;-66
2021/09/12 22:57:35;;;;;;;12.85;9.25;;;;;;;15.15;73.73;99818.83;253688;1107;116018;-66
2021/09/12 23:02:40;;;;;;;10.23;9.00;;;;;;;15.14;74.26;99822.58;253941;1107;115543;-66